map of SOB home
SOB - Airport
Location
City:  Sármellék, Zala, Hungary
Near (Alt.):Saarmelleek
Name:Hévíz-Belaton Airport
Old (Alt.):Sármellék International Airport
ICAO:LHSM
IATA:SOB

Details
Type:Airport (Aerodrome, Airfield)
Use:Public/Civil, International (customs port of entry)
Latitude:46°41'11"N (46.686389)
Longitude:17°09'33"E (17.159167)
Elevation:443 ft (135 m)
Variation:4.21°E (WMM2015 magnetic declination)
0.11° annual change
Runways:1
Longest:8202 × 197 ft (2500 × 60 m), paved

Time
Time Zone:UTC+1 (DST+2)
Local Time:

Weather
METAR:LHSM 240945Z 04003KT 9999 FEW016 BKN083 23/20 Q1008 NOSIG

Related Locations
Nearby:
Farthest:CHT: 11747 mi / 18905 km
Waitangi [Tuuta], CIT, NZ

Find:

   beyond  
but within

Other Information
Maps:
NOTAMs:
Links:
Sources:

  
flag of Hungary
flag of Zala
  

Sectional Chart

Flight Planning
at skyvector.com

Satellite Image

Google Maps Satellite view

 

Copyright © 2004-2017 Karl L. Swartz. All rights reserved.
The Great Circle Mapper name and logo are trademarks of the Great Circle Mapper.
All other trademarks mentioned herein belong to their respective owners.
Please see credits for attibutions and further copyright information.

  Follow gcmap on Facebook Follow gcmap on Twitter Follow gcmap on Google+ GCmap on LinkedIn

hCard Microformat

Geo Microformat